Time;durP1;ratioP1;P1;durP2;ratioP2;P2;SDS_P1;SDS_P2;PMS_P1;PMS_P2;Temp;Humidity;BMP_temperature;BMP_pressure;BME280_temperature;BME280_humidity;BME280_pressure;Samples;Min_cycle;Max_cycle;Signal;HPM_P1;HPM_P2
2022/04/25 00:01:24;;;;;;;12.20;7.53;;;;;;;10.44;63.01;99945.59;1704262;83;21111;-52
2022/04/25 00:03:51;;;;;;;11.90;8.60;;;;;;;10.43;62.95;99939.51;1729841;81;21026;-53
2022/04/25 00:06:18;;;;;;;14.58;8.13;;;;;;;10.41;62.95;99944.08;1699024;83;21087;-52
2022/04/25 00:08:46;;;;;;;11.43;7.65;;;;;;;10.35;63.04;99933.58;1705674;81;21224;-52
2022/04/25 00:11:15;;;;;;;12.00;8.38;;;;;;;10.32;63.22;99929.93;1702620;82;21099;-52
2022/04/25 00:13:43;;;;;;;11.43;7.58;;;;;;;10.30;63.25;99937.06;1707937;82;21108;-52
2022/04/25 00:16:13;;;;;;;11.57;7.90;;;;;;;10.28;63.43;99936.37;1698287;82;21158;-52
2022/04/25 00:18:41;;;;;;;12.82;8.43;;;;;;;10.27;63.68;99931.24;1693351;83;21061;-52
2022/04/25 00:21:08;;;;;;;9.55;6.45;;;;;;;10.25;63.72;99933.17;1691094;82;21689;-52
2022/04/25 00:23:35;;;;;;;12.37;7.40;;;;;;;10.22;63.73;99933.80;1711878;82;21669;-53
2022/04/25 00:26:02;;;;;;;11.45;7.05;;;;;;;10.27;63.74;99933.88;1714889;81;21581;-52
2022/04/25 00:28:30;;;;;;;10.50;6.60;;;;;;;10.29;63.75;99937.19;1712319;82;21215;-52
2022/04/25 00:30:57;;;;;;;11.33;8.35;;;;;;;10.31;63.76;99946.63;1709133;82;21160;-52
2022/04/25 00:33:24;;;;;;;11.88;8.63;;;;;;;10.31;64.03;99950.58;1724730;81;21063;-52
2022/04/25 00:35:50;;;;;;;12.10;7.83;;;;;;;10.30;64.25;99952.02;1703325;82;21230;-53
2022/04/25 00:38:19;;;;;;;11.90;8.35;;;;;;;10.31;64.46;99945.81;1700632;81;21054;-53
2022/04/25 00:40:46;;;;;;;12.60;7.97;;;;;;;10.28;64.52;99936.37;1696812;83;21078;-53
2022/04/25 00:43:13;;;;;;;14.00;8.38;;;;;;;10.28;64.49;99937.69;1701768;83;21131;-53
2022/04/25 00:45:39;;;;;;;12.68;8.98;;;;;;;10.24;64.41;99931.04;1680951;82;21094;-53
2022/04/25 00:48:07;;;;;;;11.80;7.65;;;;;;;10.19;64.35;99923.53;1710428;81;20988;-53
2022/04/25 00:50:38;;;;;;;11.38;8.03;;;;;;;10.12;64.35;99924.18;1740586;81;21097;-52
2022/04/25 00:53:06;;;;;;;10.55;7.33;;;;;;;10.10;64.36;99914.28;1706042;81;21119;-53
2022/04/25 00:55:33;;;;;;;10.43;6.55;;;;;;;10.11;64.29;99912.02;1710540;81;21071;-53
2022/04/25 00:58:00;;;;;;;10.40;7.87;;;;;;;10.12;64.34;99913.20;1744316;81;21045;-53
2022/04/25 01:00:29;;;;;;;11.30;7.58;;;;;;;10.15;64.44;99904.20;1734209;81;20976;-53
2022/04/25 01:02:56;;;;;;;12.30;7.62;;;;;;;10.16;64.48;99900.13;1726117;81;21064;-52
2022/04/25 01:05:25;;;;;;;10.55;6.83;;;;;;;10.17;64.54;99897.02;1728720;82;21030;-53
2022/04/25 01:07:52;;;;;;;13.58;7.83;;;;;;;10.17;64.56;99900.50;1702587;83;21118;-52
2022/04/25 01:10:19;;;;;;;11.28;6.95;;;;;;;10.16;64.43;99909.83;1739375;81;21060;-53
2022/04/25 01:12:47;;;;;;;10.20;6.65;;;;;;;10.11;64.42;99903.64;1739605;81;21153;-52
2022/04/25 01:15:15;;;;;;;10.08;7.55;;;;;;;10.10;64.31;99907.71;1744337;81;21124;-52
2022/04/25 01:17:42;;;;;;;12.10;7.67;;;;;;;10.08;64.36;99903.90;1739757;81;21061;-52
2022/04/25 01:20:10;;;;;;;10.88;8.28;;;;;;;10.04;64.45;99905.14;1708995;82;21069;-53
2022/04/25 01:22:45;;;;;;;10.80;7.00;;;;;;;10.02;64.79;99897.88;1729025;81;21050;-53
2022/04/25 01:27:57;;;;;;;9.17;6.43;;;;;;;10.08;64.98;99896.02;1710088;82;21551;-53
2022/04/25 01:30:24;;;;;;;12.93;7.70;;;;;;;10.11;65.01;99886.55;1714364;83;21583;-53
2022/04/25 01:32:52;;;;;;;10.98;8.05;;;;;;;10.15;64.94;99884.00;1727074;81;21060;-52
2022/04/25 01:35:19;;;;;;;12.23;7.47;;;;;;;10.15;64.99;99876.11;1723082;82;21105;-53
2022/04/25 01:37:45;;;;;;;13.30;7.45;;;;;;;10.14;64.83;99879.72;1718970;81;21171;-53
2022/04/25 01:40:13;;;;;;;10.15;6.20;;;;;;;10.09;64.70;99870.09;1714039;82;21153;-53
2022/04/25 01:42:40;;;;;;;10.82;7.12;;;;;;;10.06;64.65;99872.97;1711615;82;21889;-53
2022/04/25 01:45:08;;;;;;;10.03;6.03;;;;;;;10.01;64.56;99869.42;1739443;81;21014;-52
2022/04/25 01:47:37;;;;;;;9.00;6.33;;;;;;;9.96;64.54;99859.78;1703829;82;21007;-53
2022/04/25 01:50:06;;;;;;;10.43;7.08;;;;;;;9.88;64.59;99862.73;1717442;81;22120;-52
2022/04/25 01:52:34;;;;;;;9.95;6.12;;;;;;;9.84;64.62;99861.67;1711416;83;21160;-52
2022/04/25 01:55:03;;;;;;;8.88;5.92;;;;;;;9.78;64.71;99862.18;1688326;83;21083;-52
2022/04/25 01:57:31;;;;;;;9.30;5.80;;;;;;;9.77;64.77;99859.71;1694832;83;21181;-53
2022/04/25 01:59:57;;;;;;;10.10;6.58;;;;;;;9.81;64.95;99859.30;1714313;82;21122;-52
2022/04/25 02:02:24;;;;;;;8.98;5.80;;;;;;;9.86;65.09;99869.42;1708433;82;21161;-53
2022/04/25 02:04:51;;;;;;;9.00;6.00;;;;;;;9.85;65.17;99868.59;1713321;82;21092;-53
2022/04/25 02:07:19;;;;;;;10.98;6.70;;;;;;;9.85;65.39;99870.38;1712540;82;21038;-52
2022/04/25 02:09:46;;;;;;;10.72;6.20;;;;;;;9.85;65.41;99870.38;1699809;82;21527;-53
2022/04/25 02:12:13;;;;;;;9.50;6.10;;;;;;;9.86;65.46;99870.73;1728470;82;21553;-52
2022/04/25 02:14:42;;;;;;;12.90;6.47;;;;;;;9.84;65.56;99860.36;1719307;82;21073;-52
2022/04/25 02:17:10;;;;;;;8.55;5.42;;;;;;;9.84;65.61;99860.84;1709881;82;21041;-52
2022/04/25 02:19:38;;;;;;;10.10;6.33;;;;;;;9.78;65.64;99854.30;1718914;82;21560;-52
2022/04/25 02:22:09;;;;;;;10.15;6.03;;;;;;;9.75;65.72;99864.23;1716393;81;21568;-52
2022/04/25 02:24:36;;;;;;;9.43;5.35;;;;;;;9.75;65.68;99871.66;1749004;81;21011;-52
2022/04/25 02:27:05;;;;;;;11.75;5.90;;;;;;;9.80;65.70;99866.84;1730583;80;21050;-52
2022/04/25 02:29:33;;;;;;;10.05;5.33;;;;;;;9.84;65.63;99863.47;1723254;83;21042;-52
2022/04/25 02:32:00;;;;;;;10.32;5.78;;;;;;;9.85;65.56;99871.23;1737536;81;21066;-52
2022/04/25 02:34:29;;;;;;;9.45;6.45;;;;;;;9.84;65.62;99869.55;1708527;81;21125;-52
2022/04/25 02:36:56;;;;;;;13.00;5.92;;;;;;;9.81;65.80;99863.23;1720108;82;21053;-52
2022/04/25 02:39:24;;;;;;;11.70;6.65;;;;;;;9.81;65.95;99861.92;1713780;82;21148;-53
2022/04/25 02:41:52;;;;;;;9.25;6.35;;;;;;;9.80;65.87;99852.39;1707590;82;21082;-53
2022/04/25 02:44:20;;;;;;;9.20;5.92;;;;;;;9.75;65.76;99857.67;1708269;81;21071;-52
2022/04/25 02:46:47;;;;;;;10.72;7.15;;;;;;;9.70;65.84;99858.09;1709555;81;21090;-53
2022/04/25 02:49:15;;;;;;;10.98;6.22;;;;;;;9.66;66.00;99856.66;1743723;80;20979;-52
2022/04/25 02:51:43;;;;;;;8.68;5.53;;;;;;;9.66;65.99;99857.98;1714302;82;21143;-52
2022/04/25 02:54:10;;;;;;;7.67;5.10;;;;;;;9.67;66.03;99853.91;1727587;81;21574;-53
2022/04/25 02:56:38;;;;;;;8.88;6.05;;;;;;;9.72;66.17;99851.39;1744038;80;21103;-53
2022/04/25 02:59:06;;;;;;;8.25;5.45;;;;;;;9.74;66.17;99856.84;1747686;81;21063;-52
2022/04/25 03:01:34;;;;;;;10.15;5.95;;;;;;;9.77;66.18;99853.97;1718323;81;21051;-53
2022/04/25 03:04:01;;;;;;;11.10;6.60;;;;;;;9.77;66.11;99863.16;1744089;81;21153;-52
2022/04/25 03:06:30;;;;;;;8.78;5.60;;;;;;;9.76;66.03;99859.34;1739894;80;21471;-52
2022/04/25 03:08:56;;;;;;;10.03;6.20;;;;;;;9.77;66.00;99861.02;1726649;81;21058;-53
2022/04/25 03:11:24;;;;;;;9.70;5.85;;;;;;;9.77;66.15;99863.66;1732059;81;21145;-52
2022/04/25 03:13:55;;;;;;;9.80;6.15;;;;;;;9.79;66.25;99861.23;1699252;83;21054;-52
2022/04/25 03:16:22;;;;;;;9.95;5.87;;;;;;;9.78;66.58;99854.78;1698893;83;21161;-53
2022/04/25 03:18:49;;;;;;;8.50;5.17;;;;;;;9.77;66.87;99857.91;1709230;82;21082;-53
2022/04/25 03:21:16;;;;;;;8.95;5.80;;;;;;;9.80;67.08;99848.45;1717014;82;21097;-53
2022/04/25 03:23:44;;;;;;;10.03;6.37;;;;;;;9.86;67.09;99830.83;1702123;82;21050;-53
2022/04/25 03:26:11;;;;;;;10.18;5.10;;;;;;;9.94;67.08;99833.30;1708828;83;21057;-53
2022/04/25 03:28:38;;;;;;;10.28;5.87;;;;;;;10.00;66.96;99830.12;1739526;80;21235;-53
2022/04/25 03:31:06;;;;;;;9.00;5.83;;;;;;;10.02;66.78;99839.55;1712999;82;21125;-53
2022/04/25 03:33:38;;;;;;;9.30;6.30;;;;;;;10.07;66.62;99842.25;1696891;82;20983;-53
2022/04/25 03:36:05;;;;;;;9.95;5.58;;;;;;;10.08;66.34;99840.81;1707313;82;21094;-52
2022/04/25 03:38:32;;;;;;;9.00;6.33;;;;;;;10.10;66.29;99838.88;1701347;82;21005;-52
2022/04/25 03:41:02;;;;;;;9.80;6.30;;;;;;;10.15;66.17;99837.16;1743637;81;21178;-52
2022/04/25 03:43:30;;;;;;;9.43;5.67;;;;;;;10.16;66.03;99829.64;1716079;81;21691;-52
2022/04/25 03:45:58;;;;;;;8.05;5.45;;;;;;;10.15;66.02;99822.70;1714625;82;21071;-53
2022/04/25 03:48:25;;;;;;;8.63;5.60;;;;;;;10.15;65.96;99816.95;1682662;81;21140;-53
2022/04/25 03:50:51;;;;;;;9.15;5.45;;;;;;;10.22;65.96;99817.25;1711127;81;21103;-53
2022/04/25 03:53:18;;;;;;;9.13;5.37;;;;;;;10.30;65.93;99811.33;1694116;83;21164;-52
2022/04/25 03:58:30;;;;;;;7.67;4.85;;;;;;;10.46;65.84;99806.42;1717216;83;21067;-53
2022/04/25 04:00:57;;;;;;;9.43;5.42;;;;;;;10.53;65.73;99799.64;1718276;82;21074;-53
2022/04/25 04:03:24;;;;;;;7.45;4.30;;;;;;;10.58;65.49;99790.84;1704841;82;21061;-53
2022/04/25 04:05:50;;;;;;;8.40;4.10;;;;;;;10.64;65.19;99793.43;1731367;81;21100;-53
2022/04/25 04:08:19;;;;;;;7.83;4.45;;;;;;;10.70;64.72;99794.17;1710031;82;21132;-53
2022/04/25 04:10:47;;;;;;;8.00;4.65;;;;;;;10.77;64.15;99786.06;1749452;80;21102;-53
2022/04/25 04:13:15;;;;;;;8.38;4.35;;;;;;;10.86;63.45;99776.53;1756574;80;21537;-54
2022/04/25 04:15:43;;;;;;;6.25;3.70;;;;;;;10.91;62.89;99773.45;1734852;80;21031;-53
2022/04/25 04:18:11;;;;;;;6.55;3.60;;;;;;;10.97;62.36;99764.52;1726172;83;21022;-53
2022/04/25 04:20:39;;;;;;;8.43;4.03;;;;;;;11.03;61.80;99763.14;1743925;81;21322;-53
2022/04/25 04:23:06;;;;;;;6.20;3.02;;;;;;;11.10;61.34;99766.04;1734702;81;21043;-53
2022/04/25 04:25:35;;;;;;;8.05;3.42;;;;;;;11.18;61.20;99757.41;1709773;81;21017;-53
2022/04/25 04:28:06;;;;;;;7.65;3.27;;;;;;;11.29;60.93;99763.34;1742462;81;21161;-52
2022/04/25 04:30:33;;;;;;;6.30;2.65;;;;;;;11.45;60.38;99756.67;1738806;81;21165;-53
2022/04/25 04:33:01;;;;;;;7.10;3.92;;;;;;;11.62;60.07;99757.72;1731160;81;21583;-53
2022/04/25 04:38:13;;;;;;;7.67;4.30;;;;;;;11.88;59.57;99755.22;1707225;81;21095;-53
2022/04/25 04:40:40;;;;;;;7.20;4.08;;;;;;;12.00;59.51;99750.61;1718016;81;21050;-53
2022/04/25 04:44:08;;;;;;;8.40;4.30;;;;;;;12.16;59.10;99748.16;1779176;78;22667;-53
2022/04/25 04:46:34;;;;;;;7.67;4.12;;;;;;;12.23;58.58;99751.03;1755696;81;21307;-53
2022/04/25 04:49:02;;;;;;;6.83;3.47;;;;;;;12.32;58.14;99751.44;1706886;81;21320;-53
2022/04/25 04:51:28;;;;;;;7.00;3.92;;;;;;;12.38;58.06;99757.95;1720704;83;20999;-53
2022/04/25 04:53:59;;;;;;;7.25;4.17;;;;;;;12.46;57.99;99760.66;1710155;83;21055;-53
2022/04/25 04:56:31;;;;;;;7.97;4.15;;;;;;;12.53;57.58;99767.00;1717658;83;21018;-53
2022/04/25 04:58:59;;;;;;;6.60;3.95;;;;;;;12.60;57.30;99761.95;1749951;81;21105;-53
2022/04/25 05:01:26;;;;;;;7.67;3.92;;;;;;;12.67;56.64;99764.80;1721510;81;21154;-53
2022/04/25 05:03:58;;;;;;;8.33;3.60;;;;;;;12.70;56.40;99765.33;1721446;82;21587;-53
2022/04/25 05:06:26;;;;;;;6.97;3.92;;;;;;;12.76;56.23;99768.69;1707828;81;21280;-53
2022/04/25 05:08:55;;;;;;;7.12;4.12;;;;;;;12.82;56.40;99766.74;1713328;81;21046;-53
2022/04/25 05:11:23;;;;;;;6.42;4.17;;;;;;;12.90;56.44;99769.95;1709304;82;21134;-53
2022/04/25 05:13:51;;;;;;;5.83;3.30;;;;;;;12.94;56.45;99768.66;1720824;81;21155;-53
2022/04/25 05:16:17;;;;;;;7.17;3.70;;;;;;;13.01;56.49;99774.15;1730922;81;21509;-54
2022/04/25 05:18:44;;;;;;;6.40;3.50;;;;;;;13.10;56.38;99771.10;1713871;81;21050;-53
2022/04/25 05:21:13;;;;;;;6.10;3.00;;;;;;;13.19;55.93;99772.30;1709654;81;21059;-53
2022/04/25 05:23:42;;;;;;;6.80;3.98;;;;;;;13.31;55.75;99772.05;1709693;82;21558;-54
2022/04/25 05:26:09;;;;;;;9.45;4.12;;;;;;;13.42;55.82;99773.66;1712443;81;21252;-54
2022/04/25 05:28:35;;;;;;;8.00;3.55;;;;;;;13.53;55.60;99779.97;1706472;82;21820;-53
2022/04/25 05:31:02;;;;;;;6.08;3.30;;;;;;;13.63;55.81;99773.26;1710335;81;21081;-53
2022/04/25 05:33:29;;;;;;;5.28;2.87;;;;;;;13.74;55.57;99771.67;1718205;82;21070;-52
2022/04/25 05:35:55;;;;;;;6.50;3.72;;;;;;;13.89;55.09;99755.53;1708702;82;21086;-53
2022/04/25 05:38:23;;;;;;;6.80;3.35;;;;;;;14.04;54.77;99757.08;1718310;81;21054;-53
2022/04/25 05:40:50;;;;;;;7.30;3.62;;;;;;;14.19;54.91;99757.28;1711366;81;21102;-53
2022/04/25 05:43:18;;;;;;;7.25;3.72;;;;;;;14.32;54.68;99756.80;1701165;82;21042;-54
2022/04/25 05:45:46;;;;;;;7.42;3.30;;;;;;;14.45;54.47;99754.50;1693946;82;21081;-54
2022/04/25 05:53:44;;;;;;;6.78;3.58;;;;;;;14.72;54.23;99742.49;1696854;82;21055;-51
2022/04/25 05:56:12;;;;;;;7.03;3.70;;;;;;;14.81;54.23;99738.36;1693830;82;21028;-52
2022/04/25 05:58:39;;;;;;;6.90;3.75;;;;;;;14.89;53.96;99741.48;1693082;82;21068;-52
2022/04/25 06:01:06;;;;;;;8.25;4.28;;;;;;;14.95;53.75;99736.85;1696292;83;21086;-52
2022/04/25 06:03:32;;;;;;;6.78;3.05;;;;;;;15.03;53.74;99734.70;1755461;80;21146;-52
2022/04/25 06:05:59;;;;;;;6.72;3.60;;;;;;;15.13;53.88;99737.15;1754455;80;21050;-52
2022/04/25 06:08:26;;;;;;;6.75;3.67;;;;;;;15.22;53.95;99732.18;1748679;80;21051;-52
2022/04/25 06:10:54;;;;;;;7.05;3.90;;;;;;;15.32;53.48;99730.67;1759696;80;21123;-53
2022/04/25 06:13:24;;;;;;;6.97;3.75;;;;;;;15.41;53.75;99719.85;1741910;82;21134;-53
2022/04/25 06:15:50;;;;;;;8.28;4.15;;;;;;;15.51;54.24;99712.21;1758149;80;21150;-53
2022/04/25 06:18:17;;;;;;;6.85;3.67;;;;;;;15.61;55.17;99704.88;1755334;80;21783;-53
2022/04/25 06:20:46;;;;;;;8.20;3.58;;;;;;;15.73;55.55;99702.67;1761992;80;20996;-53
2022/04/25 06:23:13;;;;;;;7.90;3.70;;;;;;;15.86;55.54;99701.64;1754247;80;21043;-53
2022/04/25 06:25:41;;;;;;;8.20;3.92;;;;;;;16.04;55.44;99703.19;1754470;80;21028;-54
2022/04/25 06:28:08;;;;;;;7.83;4.72;;;;;;;16.24;54.98;99698.26;1754518;80;21131;-52
2022/04/25 06:30:36;;;;;;;8.03;4.78;;;;;;;16.41;54.79;99699.81;1748239;80;21736;-52
2022/04/25 06:33:04;;;;;;;9.00;4.83;;;;;;;16.53;54.67;99696.23;1754004;80;21078;-53
2022/04/25 06:35:30;;;;;;;8.18;4.35;;;;;;;16.64;54.49;99695.82;1748913;80;21050;-52
2022/04/25 06:37:57;;;;;;;7.92;4.60;;;;;;;16.76;54.38;99698.02;1746742;80;22467;-52
2022/04/25 06:40:25;;;;;;;8.30;4.08;;;;;;;16.86;54.35;99695.48;1750817;80;21111;-52
2022/04/25 06:42:53;;;;;;;6.97;3.85;;;;;;;16.96;53.75;99693.88;1748492;80;21070;-53
2022/04/25 06:45:22;;;;;;;6.67;3.90;;;;;;;17.07;53.76;99691.29;1757252;80;21429;-53
2022/04/25 06:47:50;;;;;;;7.80;3.72;;;;;;;17.16;53.54;99694.17;1746254;80;21107;-52
2022/04/25 06:50:16;;;;;;;7.15;3.70;;;;;;;17.23;53.25;99695.11;1749983;80;22263;-52
2022/04/25 06:52:45;;;;;;;6.30;3.42;;;;;;;17.32;53.36;99696.35;1747782;80;21880;-52
2022/04/25 06:55:12;;;;;;;7.40;3.87;;;;;;;17.38;53.11;99684.48;1756991;80;21081;-52
2022/04/25 06:57:39;;;;;;;7.95;4.15;;;;;;;17.46;52.62;99683.53;1751759;80;21058;-52
2022/04/25 07:00:11;;;;;;;8.03;4.00;;;;;;;17.49;52.34;99679.70;1749474;80;21036;-53
2022/04/25 07:02:39;;;;;;;6.37;3.60;;;;;;;17.54;52.65;99677.30;1753942;80;20983;-53
2022/04/25 07:05:07;;;;;;;7.20;4.17;;;;;;;17.57;52.47;99674.28;1750086;80;21185;-52
2022/04/25 07:07:35;;;;;;;6.75;3.72;;;;;;;17.58;52.10;99674.06;1750608;80;21064;-53
2022/04/25 07:10:02;;;;;;;8.10;3.12;;;;;;;17.59;52.03;99677.05;1752603;80;21078;-52
2022/04/25 07:12:29;;;;;;;5.87;3.52;;;;;;;17.60;51.95;99682.70;1757523;80;21055;-52
2022/04/25 07:14:56;;;;;;;6.45;3.65;;;;;;;17.62;51.92;99680.68;1755663;80;21090;-53
2022/04/25 07:17:25;;;;;;;7.05;3.70;;;;;;;17.69;52.40;99677.28;1753868;80;21043;-52
2022/04/25 07:19:53;;;;;;;6.72;3.52;;;;;;;17.75;51.94;99681.36;1749797;80;21528;-51
2022/04/25 07:30:39;;;;;;;8.23;3.45;;;;;;;18.03;51.93;99667.86;1759323;80;21158;-51
2022/04/25 07:33:05;;;;;;;5.65;3.27;;;;;;;18.15;51.11;99665.82;1749255;80;21074;-52
2022/04/25 07:35:35;;;;;;;5.87;2.98;;;;;;;18.23;51.05;99664.88;1747563;80;22274;-52
2022/04/25 07:38:02;;;;;;;8.93;3.70;;;;;;;18.33;50.68;99665.91;1752708;80;21102;-52
2022/04/25 07:40:30;;;;;;;6.78;3.83;;;;;;;18.44;50.82;99664.55;1752951;80;21024;-53
2022/04/25 07:42:57;;;;;;;7.08;3.55;;;;;;;18.54;50.03;99665.05;1749123;79;21059;-53
2022/04/25 07:45:25;;;;;;;7.25;3.65;;;;;;;18.60;50.18;99654.95;1755230;80;21671;-52
2022/04/25 07:47:52;;;;;;;6.35;3.55;;;;;;;18.67;49.95;99649.68;1752400;80;21007;-52
2022/04/25 07:50:23;;;;;;;6.28;3.02;;;;;;;18.75;49.57;99644.21;1751463;80;21197;-54
2022/04/25 07:52:47;;;;;;;7.85;3.00;;;;;;;18.82;49.32;99647.73;1755727;80;21658;-53
2022/04/25 07:55:16;;;;;;;5.33;3.20;;;;;;;18.93;49.44;99641.09;1752185;80;21537;-53
2022/04/25 07:57:43;;;;;;;4.85;2.67;;;;;;;19.03;48.84;99634.89;1741331;82;21509;-53
2022/04/25 08:00:12;;;;;;;7.10;2.62;;;;;;;19.15;48.48;99637.83;1743146;80;21033;-53
2022/04/25 08:02:40;;;;;;;7.67;3.17;;;;;;;19.27;48.36;99632.77;1697678;83;21058;-52
2022/04/25 08:05:08;;;;;;;5.83;2.27;;;;;;;19.44;48.41;99636.72;1762726;80;21039;-52
2022/04/25 08:07:36;;;;;;;5.65;2.70;;;;;;;19.58;47.16;99628.77;1760989;80;21091;-52
2022/04/25 08:10:07;;;;;;;4.37;2.00;;;;;;;19.72;46.87;99625.13;1755652;80;21054;-52
2022/04/25 08:18:06;;;;;;;5.28;2.30;;;;;;;19.96;45.14;99621.63;1772235;80;21608;-52
2022/04/25 08:20:36;;;;;;;5.17;2.50;;;;;;;20.06;44.88;99613.22;1766379;80;21036;-52
2022/04/25 08:23:05;;;;;;;6.25;2.42;;;;;;;20.12;44.95;99622.55;1751393;80;21074;-53
2022/04/25 08:25:35;;;;;;;7.65;2.45;;;;;;;20.18;44.31;99616.92;1768016;80;21928;-53
2022/04/25 08:28:05;;;;;;;5.53;2.55;;;;;;;20.22;44.21;99610.13;1760108;80;21019;-52
2022/04/25 08:30:33;;;;;;;4.80;2.22;;;;;;;20.26;43.98;99612.72;1749132;80;21485;-52
2022/04/25 08:33:01;;;;;;;5.92;2.55;;;;;;;20.27;43.63;99614.86;1772579;80;21774;-52
2022/04/25 08:35:29;;;;;;;5.65;2.37;;;;;;;20.27;43.70;99612.20;1766857;80;21027;-53
2022/04/25 08:37:56;;;;;;;5.42;2.47;;;;;;;20.27;44.12;99604.18;1758861;80;21493;-52
2022/04/25 08:40:23;;;;;;;5.15;2.47;;;;;;;20.30;44.14;99601.91;1746261;80;21019;-53
2022/04/25 08:42:53;;;;;;;6.60;2.47;;;;;;;20.38;44.17;99606.25;1769273;80;20900;-52
2022/04/25 08:45:20;;;;;;;6.03;2.30;;;;;;;20.46;44.49;99607.38;1762918;79;21143;-52
2022/04/25 08:47:58;;;;;;;4.95;2.12;;;;;;;20.58;44.49;99599.03;1746216;80;21094;-52
2022/04/25 08:50:29;;;;;;;5.28;2.80;;;;;;;20.75;43.50;99598.63;1748708;80;21053;-52
2022/04/25 08:52:57;;;;;;;4.62;2.42;;;;;;;20.86;43.82;99601.98;1746098;80;21695;-52
2022/04/25 08:55:29;;;;;;;5.58;2.90;;;;;;;20.95;43.57;99593.23;1754505;80;21086;-52
2022/04/25 08:57:57;;;;;;;5.22;2.47;;;;;;;21.03;42.83;99590.83;1734415;82;21063;-53
2022/04/25 09:00:24;;;;;;;7.83;2.58;;;;;;;21.03;42.91;99593.02;1743877;80;21040;-53
2022/04/25 09:02:54;;;;;;;4.65;2.70;;;;;;;21.02;42.19;99595.38;1750133;80;21067;-54
2022/04/25 09:05:21;;;;;;;4.53;1.82;;;;;;;21.02;42.23;99594.56;1768549;80;21031;-52
2022/04/25 09:07:48;;;;;;;5.58;2.17;;;;;;;21.04;42.66;99593.83;1749936;80;21079;-53
2022/04/25 09:10:19;;;;;;;5.50;2.52;;;;;;;21.10;42.49;99595.66;1747309;80;21164;-52
2022/04/25 09:12:47;;;;;;;5.10;2.40;;;;;;;21.15;42.10;99579.80;1745690;80;21495;-52
2022/04/25 09:15:19;;;;;;;5.33;2.47;;;;;;;21.24;41.97;99589.22;1747881;80;21103;-52
2022/04/25 09:17:48;;;;;;;5.00;2.50;;;;;;;21.28;41.39;99582.42;1753633;80;21094;-53
2022/04/25 09:20:15;;;;;;;4.97;1.92;;;;;;;21.33;42.05;99595.14;1745382;80;21124;-53
2022/04/25 09:22:43;;;;;;;4.58;2.15;;;;;;;21.42;42.00;99602.44;1738257;82;20988;-52
2022/04/25 09:25:15;;;;;;;5.75;2.75;;;;;;;21.47;41.24;99612.83;1744698;80;21021;-52
2022/04/25 09:27:42;;;;;;;4.78;2.50;;;;;;;21.49;41.27;99604.59;1748453;80;21084;-52
2022/04/25 09:30:21;;;;;;;7.80;2.35;;;;;;;21.52;41.33;99602.83;1754872;80;21501;-52
2022/04/25 09:32:52;;;;;;;5.03;2.30;;;;;;;21.58;41.45;99601.95;1746010;80;21597;-51
2022/04/25 09:35:37;;;;;;;4.70;2.15;;;;;;;21.68;41.56;99607.66;1748631;80;21101;-52
2022/04/25 09:38:05;;;;;;;5.03;2.52;;;;;;;21.75;41.15;99615.66;1745309;80;21031;-54
2022/04/25 09:40:35;;;;;;;6.17;3.00;;;;;;;21.78;41.20;99621.92;1745572;80;21119;-52
2022/04/25 09:43:14;;;;;;;6.92;2.58;;;;;;;21.78;41.27;99611.74;1754133;80;21060;-52
2022/04/25 09:45:44;;;;;;;4.80;2.40;;;;;;;21.78;40.83;99611.74;1743249;80;20987;-53
2022/04/25 09:48:19;;;;;;;4.72;2.25;;;;;;;21.77;41.20;99621.64;1748610;80;20988;-52
2022/04/25 09:50:46;;;;;;;7.90;2.92;;;;;;;21.77;41.76;99606.07;1750867;80;21052;-53
2022/04/25 09:53:13;;;;;;;5.08;2.37;;;;;;;21.78;41.53;99625.13;1742506;80;21629;-53
2022/04/25 09:55:42;;;;;;;5.62;2.80;;;;;;;21.76;41.85;99618.65;1747304;80;21044;-52
2022/04/25 09:58:22;;;;;;;6.00;2.67;;;;;;;21.77;41.62;99614.95;1750058;80;21352;-52
2022/04/25 10:00:53;;;;;;;4.83;2.35;;;;;;;21.76;41.61;99605.79;1749999;80;21083;-53
2022/04/25 10:03:18;;;;;;;6.50;2.77;;;;;;;21.71;41.71;99613.93;1751321;80;21754;-52
2022/04/25 10:05:51;;;;;;;4.35;2.30;;;;;;;21.67;41.94;99614.56;1731373;80;21059;-53
2022/04/25 10:08:19;;;;;;;5.70;3.00;;;;;;;21.62;42.10;99617.91;1752406;80;21061;-53
2022/04/25 10:10:58;;;;;;;5.05;2.60;;;;;;;21.58;42.24;99614.00;1755249;80;21050;-53
2022/04/25 10:13:25;;;;;;;5.00;2.60;;;;;;;21.55;41.98;99614.95;1743678;80;21149;-53
2022/04/25 10:15:52;;;;;;;4.60;2.42;;;;;;;21.44;42.48;99620.44;1746266;80;21063;-53
2022/04/25 10:18:20;;;;;;;5.25;2.72;;;;;;;21.38;42.40;99611.91;1752626;80;21576;-53
2022/04/25 10:20:48;;;;;;;5.40;2.40;;;;;;;21.28;42.61;99625.23;1746143;80;21090;-53
2022/04/25 10:23:16;;;;;;;4.92;2.52;;;;;;;21.16;42.87;99604.16;1743233;80;21040;-52
2022/04/25 10:25:50;;;;;;;5.90;2.95;;;;;;;21.05;43.08;99623.56;1752295;80;21155;-53
2022/04/25 10:28:46;;;;;;;4.80;2.60;;;;;;;20.92;43.35;99619.87;1720824;81;21112;-52
2022/04/25 10:31:14;;;;;;;;;;;;;;;20.83;43.74;99618.47;1762736;79;21496;-52
2022/04/25 10:33:58;;;;;;;4.80;2.58;;;;;;;20.76;44.18;99618.97;1743479;80;20173;-52
2022/04/25 10:36:43;;;;;;;5.00;2.58;;;;;;;20.68;44.08;99627.20;1760041;80;21083;-53
2022/04/25 10:39:18;;;;;;;4.85;2.40;;;;;;;20.63;44.25;99629.19;1749634;80;21234;-53
2022/04/25 10:44:50;;;;;;;5.53;2.92;;;;;;;20.61;44.05;99620.52;1708258;81;21095;-53
2022/04/25 10:47:25;;;;;;;5.30;2.35;;;;;;;20.64;43.96;99631.33;1746611;79;21458;-54
2022/04/25 10:49:59;;;;;;;9.15;2.30;;;;;;;20.69;44.08;99626.19;1755452;80;21088;-54
2022/04/25 10:55:33;;;;;;;7.45;2.50;;;;;;;20.81;43.82;99621.84;1760178;80;21043;-54
2022/04/25 10:58:08;;;;;;;5.62;2.55;;;;;;;20.88;43.81;99621.33;1773177;79;21034;-53
2022/04/25 11:00:45;;;;;;;6.03;2.52;;;;;;;20.97;43.70;99622.73;1766066;80;21106;-53
2022/04/25 11:03:25;;;;;;;4.65;2.50;;;;;;;21.07;43.19;99629.52;1766896;79;21126;-52
2022/04/25 11:05:56;;;;;;;4.78;2.40;;;;;;;21.15;42.64;99626.62;1767153;80;21019;-53
2022/04/25 11:08:33;;;;;;;5.92;2.17;;;;;;;21.21;42.16;99630.30;1762751;79;21034;-53
2022/04/25 11:11:04;;;;;;;5.75;2.50;;;;;;;21.25;42.17;99619.46;1765853;79;21060;-53
2022/04/25 11:13:53;;;;;;;4.95;2.47;;;;;;;21.30;42.20;99627.67;1755743;80;21725;-52
2022/04/25 11:16:25;;;;;;;6.25;2.75;;;;;;;21.39;42.04;99619.73;1716037;80;21038;-53
2022/04/25 11:19:20;;;;;;;7.33;2.37;;;;;;;21.52;41.46;99614.88;1765387;80;21115;-53
2022/04/25 11:21:53;;;;;;;6.45;2.42;;;;;;;21.67;41.20;99627.95;1749018;79;21660;-52
2022/04/25 11:24:35;;;;;;;5.17;2.33;;;;;;;21.84;40.80;99609.03;1750262;80;21604;-54
2022/04/25 11:27:07;;;;;;;7.47;2.65;;;;;;;21.97;40.42;99621.52;1759530;79;21091;-53
2022/04/25 11:29:44;;;;;;;6.95;3.12;;;;;;;22.06;40.43;99628.25;1755249;80;21679;-53
2022/04/25 11:32:27;;;;;;;5.78;2.30;;;;;;;22.12;40.60;99624.39;1759103;79;21869;-52
2022/04/25 11:35:02;;;;;;;6.22;2.22;;;;;;;22.17;40.25;99620.02;1761658;79;21035;-53
2022/04/25 11:37:32;;;;;;;8.53;2.67;;;;;;;22.25;40.27;99605.02;1761476;79;21008;-53
2022/04/25 11:40:07;;;;;;;7.72;3.15;;;;;;;22.35;39.15;99623.32;1754490;80;21095;-53
2022/04/25 11:42:36;;;;;;;6.65;2.67;;;;;;;22.34;39.09;99620.86;1755679;79;21051;-53
2022/04/25 11:45:06;;;;;;;7.05;2.60;;;;;;;22.31;38.61;99615.43;1765928;80;21075;-53
2022/04/25 11:47:34;;;;;;;5.70;2.17;;;;;;;22.29;38.87;99616.14;1775559;79;21008;-53
2022/04/25 11:50:05;;;;;;;6.47;2.50;;;;;;;22.35;38.68;99622.51;1760273;80;21395;-53
2022/04/25 11:52:33;;;;;;;7.85;2.85;;;;;;;22.36;38.68;99629.48;1747074;80;21064;-53
2022/04/25 11:55:00;;;;;;;6.20;3.33;;;;;;;22.28;39.23;99627.08;1748168;80;21124;-53
2022/04/25 11:57:27;;;;;;;6.78;3.00;;;;;;;22.15;39.40;99623.44;1747906;80;21148;-53
2022/04/25 12:00:16;;;;;;;8.78;2.85;;;;;;;22.01;39.91;99628.60;1747097;80;21035;-53
2022/04/25 12:02:44;;;;;;;6.30;2.77;;;;;;;21.90;39.99;99630.09;1756877;80;21004;-53
2022/04/25 12:05:12;;;;;;;5.95;3.15;;;;;;;21.77;40.57;99628.33;1750293;80;21089;-52
2022/04/25 12:15:43;;;;;;;7.53;3.15;;;;;;;21.52;41.79;99619.70;1750116;80;21616;-53
2022/04/25 12:18:30;;;;;;;6.87;3.72;;;;;;;21.52;41.60;99626.92;1762258;80;21106;-54
2022/04/25 12:21:13;;;;;;;10.03;3.37;;;;;;;21.52;41.52;99620.23;1752381;80;21569;-54
2022/04/25 12:23:53;;;;;;;7.83;2.83;;;;;;;21.51;41.54;99623.40;1755406;80;21057;-53
2022/04/25 12:26:30;;;;;;;9.55;3.35;;;;;;;21.55;41.73;99625.13;1756694;80;21030;-52